Time;durP1;ratioP1;P1;durP2;ratioP2;P2;SDS_P1;SDS_P2;PMS_P1;PMS_P2;Temp;Humidity;BMP_temperature;BMP_pressure;BME280_temperature;BME280_humidity;BME280_pressure;Samples;Min_cycle;Max_cycle;Signal;HPM_P1;HPM_P2
2023/05/26 00:02:19;;;;;;;17.85;3.92;;;;;;;;;;5110975;27;20389;-46
2023/05/26 00:04:46;;;;;;;11.98;3.67;;;;;;;;;;5076891;28;20093;-44
2023/05/26 00:07:15;;;;;;;14.90;3.83;;;;;;;;;;5101119;28;20036;-45
2023/05/26 00:09:42;;;;;;;20.08;3.72;;;;;;;;;;5112158;28;20468;-47
2023/05/26 00:12:09;;;;;;;13.88;3.83;;;;;;;;;;5112284;28;20423;-45
2023/05/26 00:14:36;;;;;;;18.58;4.30;;;;;;;;;;5111454;28;20023;-45
2023/05/26 00:17:03;;;;;;;11.25;4.35;;;;;;;;;;5112142;28;20042;-44
2023/05/26 00:19:31;;;;;;;15.57;4.95;;;;;;;;;;5111979;28;20036;-46
2023/05/26 00:21:58;;;;;;;17.58;5.53;;;;;;;;;;5112134;28;20028;-44
2023/05/26 00:24:25;;;;;;;18.75;7.05;;;;;;;;;;5111695;28;20035;-44
2023/05/26 00:26:53;;;;;;;28.23;9.30;;;;;;;;;;5112024;28;20019;-47
2023/05/26 00:29:21;;;;;;;36.22;11.13;;;;;;;;;;5098160;28;20488;-44
2023/05/26 00:31:48;;;;;;;33.83;11.38;;;;;;;;;;5112133;28;20027;-44
2023/05/26 00:34:15;;;;;;;50.67;13.68;;;;;;;;;;5092678;28;20107;-45
2023/05/26 00:36:42;;;;;;;43.85;14.07;;;;;;;;;;5111212;28;20039;-44
2023/05/26 00:39:09;;;;;;;43.72;14.73;;;;;;;;;;5111139;28;20023;-44
2023/05/26 00:41:36;;;;;;;50.67;16.42;;;;;;;;;;5111387;28;20556;-44
2023/05/26 00:44:03;;;;;;;50.45;15.45;;;;;;;;;;5111503;28;20024;-44
2023/05/26 00:46:31;;;;;;;50.85;17.17;;;;;;;;;;5111686;28;20538;-44
2023/05/26 00:48:58;;;;;;;48.75;16.52;;;;;;;;;;5108421;28;20070;-44
2023/05/26 00:51:24;;;;;;;49.55;15.45;;;;;;;;;;5110760;28;20023;-44
2023/05/26 00:53:52;;;;;;;48.00;16.10;;;;;;;;;;5090653;28;20063;-44
2023/05/26 00:56:19;;;;;;;44.38;15.55;;;;;;;;;;5090013;28;20032;-44
2023/05/26 00:58:46;;;;;;;50.33;15.27;;;;;;;;;;5091489;28;20080;-45
2023/05/26 01:01:14;;;;;;;57.35;15.23;;;;;;;;;;5096974;28;20032;-47
2023/05/26 01:03:40;;;;;;;43.90;14.65;;;;;;;;;;5079229;28;20402;-45
2023/05/26 01:06:08;;;;;;;45.42;13.75;;;;;;;;;;5090661;28;20119;-41
2023/05/26 01:08:35;;;;;;;43.55;15.00;;;;;;;;;;5089991;28;20037;-43
2023/05/26 01:11:07;;;;;;;43.20;14.68;;;;;;;;;;5100026;28;20037;-41
2023/05/26 01:13:33;;;;;;;;;;;;;;;;;;5094825;28;20032;-42
2023/05/26 01:16:04;;;;;;;39.53;13.15;;;;;;;;;;5093175;28;20341;-41
2023/05/26 01:18:52;;;;;;;41.35;14.25;;;;;;;;;;5099941;28;20020;-41
2023/05/26 01:21:21;;;;;;;38.83;13.70;;;;;;;;;;5111273;28;20050;-41
2023/05/26 01:24:01;;;;;;;36.67;12.45;;;;;;;;;;5111110;28;20104;-41
2023/05/26 01:26:40;;;;;;;34.88;12.38;;;;;;;;;;5111292;28;20028;-42
2023/05/26 01:29:14;;;;;;;35.45;12.18;;;;;;;;;;5099331;28;20521;-41
2023/05/26 01:31:41;;;;;;;35.38;11.63;;;;;;;;;;5111116;28;20386;-41
2023/05/26 01:34:08;;;;;;;41.13;12.85;;;;;;;;;;5110199;28;20084;-42
2023/05/26 01:36:36;;;;;;;37.67;11.57;;;;;;;;;;5110003;28;20023;-41
2023/05/26 01:39:03;;;;;;;29.67;11.43;;;;;;;;;;5104838;28;20046;-41
2023/05/26 01:41:37;;;;;;;30.83;11.00;;;;;;;;;;5098307;28;20093;-42
2023/05/26 01:44:11;;;;;;;28.90;10.93;;;;;;;;;;5097165;28;20027;-41
2023/05/26 01:46:51;;;;;;;30.80;11.43;;;;;;;;;;5110818;28;20494;-41
2023/05/26 01:49:20;;;;;;;28.67;10.30;;;;;;;;;;5111176;28;20036;-41
2023/05/26 01:51:54;;;;;;;29.45;10.93;;;;;;;;;;5110911;28;20039;-42
2023/05/26 01:54:23;;;;;;;31.35;10.27;;;;;;;;;;5111015;28;20075;-41
2023/05/26 01:56:51;;;;;;;28.52;10.98;;;;;;;;;;5110815;28;20035;-43
2023/05/26 01:59:19;;;;;;;27.67;10.63;;;;;;;;;;5110884;28;20027;-41
2023/05/26 02:01:47;;;;;;;30.92;10.40;;;;;;;;;;5107915;28;20470;-42
2023/05/26 02:04:14;;;;;;;29.00;10.00;;;;;;;;;;5093312;28;20075;-41
2023/05/26 02:06:41;;;;;;;32.13;9.77;;;;;;;;;;5107202;27;20035;-41
2023/05/26 02:09:08;;;;;;;27.67;10.55;;;;;;;;;;5100468;28;20047;-43
2023/05/26 02:11:35;;;;;;;27.13;10.65;;;;;;;;;;5095196;28;20115;-45
2023/05/26 02:14:03;;;;;;;27.73;9.82;;;;;;;;;;5113540;28;20027;-41
2023/05/26 02:16:32;;;;;;;25.75;9.27;;;;;;;;;;5098410;28;20531;-41
2023/05/26 02:18:59;;;;;;;25.52;9.50;;;;;;;;;;5092097;28;20028;-46
2023/05/26 02:21:27;;;;;;;23.60;8.88;;;;;;;;;;5109419;28;20032;-43
2023/05/26 02:23:54;;;;;;;23.92;9.48;;;;;;;;;;5113088;28;20027;-41
2023/05/26 02:26:21;;;;;;;23.08;8.82;;;;;;;;;;5101259;28;20031;-42
2023/05/26 02:28:52;;;;;;;23.08;9.00;;;;;;;;;;5092981;28;20128;-41
2023/05/26 02:31:20;;;;;;;20.00;8.35;;;;;;;;;;5087949;28;20390;-41
2023/05/26 02:33:47;;;;;;;28.13;8.90;;;;;;;;;;5092705;28;20028;-44
2023/05/26 02:36:14;;;;;;;22.48;8.20;;;;;;;;;;5108246;28;20077;-42
2023/05/26 02:38:42;;;;;;;21.25;8.32;;;;;;;;;;5100714;28;20030;-41
2023/05/26 02:41:10;;;;;;;22.55;8.95;;;;;;;;;;5119657;27;20637;-43
2023/05/26 02:43:39;;;;;;;21.98;7.97;;;;;;;;;;5115968;27;20116;-42
2023/05/26 02:46:07;;;;;;;18.90;7.97;;;;;;;;;;5112442;28;20115;-42
2023/05/26 02:48:34;;;;;;;21.60;8.75;;;;;;;;;;5113168;28;20027;-41
2023/05/26 02:51:01;;;;;;;21.13;7.75;;;;;;;;;;5114167;28;20107;-41
2023/05/26 02:53:28;;;;;;;22.75;9.10;;;;;;;;;;5113850;28;20089;-41
2023/05/26 02:55:56;;;;;;;23.48;8.45;;;;;;;;;;5113428;28;20488;-41
2023/05/26 02:58:23;;;;;;;20.75;7.90;;;;;;;;;;5113873;28;20035;-42
2023/05/26 03:00:52;;;;;;;27.00;8.88;;;;;;;;;;5113597;28;20055;-42
2023/05/26 03:03:19;;;;;;;22.00;8.85;;;;;;;;;;5112704;28;20027;-41
2023/05/26 03:05:47;;;;;;;19.00;7.53;;;;;;;;;;5112729;28;20043;-42
2023/05/26 03:08:14;;;;;;;20.20;8.30;;;;;;;;;;5112660;28;20030;-41
2023/05/26 03:10:43;;;;;;;15.20;7.07;;;;;;;;;;5113288;28;20030;-41
2023/05/26 03:13:11;;;;;;;19.00;8.18;;;;;;;;;;5112742;28;20031;-40
2023/05/26 03:15:39;;;;;;;15.73;7.80;;;;;;;;;;5113761;28;20036;-41
2023/05/26 03:18:06;;;;;;;16.50;7.30;;;;;;;;;;5113383;28;20481;-41
2023/05/26 03:20:33;;;;;;;21.63;7.93;;;;;;;;;;5113650;28;20023;-42
2023/05/26 03:23:00;;;;;;;20.15;7.65;;;;;;;;;;5113433;28;20047;-40
2023/05/26 03:25:27;;;;;;;20.80;7.60;;;;;;;;;;5113439;28;20390;-40
2023/05/26 03:27:55;;;;;;;16.77;7.45;;;;;;;;;;5113390;28;20031;-40
2023/05/26 03:30:22;;;;;;;19.23;7.80;;;;;;;;;;5113093;28;20048;-40
2023/05/26 03:32:50;;;;;;;14.35;7.53;;;;;;;;;;5112729;28;20452;-40
2023/05/26 03:35:17;;;;;;;15.27;6.93;;;;;;;;;;5112787;28;20412;-41
2023/05/26 03:37:44;;;;;;;17.50;7.47;;;;;;;;;;5112561;28;20070;-40
2023/05/26 03:40:11;;;;;;;14.93;7.00;;;;;;;;;;5112633;28;20052;-40
2023/05/26 03:42:38;;;;;;;16.75;7.53;;;;;;;;;;5094067;28;20547;-40
2023/05/26 03:45:05;;;;;;;18.98;7.45;;;;;;;;;;5112784;28;20119;-40
2023/05/26 03:47:32;;;;;;;15.38;7.13;;;;;;;;;;5112904;28;20525;-40
2023/05/26 03:49:59;;;;;;;16.88;7.63;;;;;;;;;;5113038;28;20110;-40
2023/05/26 03:52:26;;;;;;;13.38;6.95;;;;;;;;;;5112945;28;20023;-40
2023/05/26 03:54:53;;;;;;;16.23;6.30;;;;;;;;;;5112948;28;20190;-40
2023/05/26 03:57:20;;;;;;;13.73;6.82;;;;;;;;;;5112976;28;20430;-43
2023/05/26 03:59:48;;;;;;;15.65;6.80;;;;;;;;;;5112988;28;20106;-40
2023/05/26 04:02:14;;;;;;;17.50;6.90;;;;;;;;;;5112730;28;20031;-40
2023/05/26 04:04:41;;;;;;;13.30;6.75;;;;;;;;;;5112466;28;20050;-40
2023/05/26 04:07:08;;;;;;;17.63;7.28;;;;;;;;;;5112819;28;20228;-40
2023/05/26 04:09:36;;;;;;;15.73;6.55;;;;;;;;;;5112678;28;20027;-40
2023/05/26 04:12:03;;;;;;;16.08;7.35;;;;;;;;;;5112656;28;20020;-40
2023/05/26 04:14:30;;;;;;;14.27;6.50;;;;;;;;;;5112555;28;20054;-40
2023/05/26 04:16:57;;;;;;;14.88;6.25;;;;;;;;;;5094356;28;20027;-40
2023/05/26 04:19:24;;;;;;;14.18;6.78;;;;;;;;;;5112623;28;20038;-40
2023/05/26 04:21:51;;;;;;;13.35;6.55;;;;;;;;;;5112639;28;20024;-41
2023/05/26 04:24:18;;;;;;;15.40;6.85;;;;;;;;;;5111893;28;20038;-40
2023/05/26 04:26:48;;;;;;;13.18;6.43;;;;;;;;;;5112406;28;20560;-40
2023/05/26 04:29:15;;;;;;;14.52;6.65;;;;;;;;;;5112445;28;20418;-41
2023/05/26 04:31:42;;;;;;;13.55;6.40;;;;;;;;;;5112494;28;20163;-40
2023/05/26 04:34:10;;;;;;;12.57;6.63;;;;;;;;;;5112067;28;20156;-41
2023/05/26 04:36:39;;;;;;;12.40;6.07;;;;;;;;;;5112209;28;20401;-40
2023/05/26 04:39:06;;;;;;;11.55;6.03;;;;;;;;;;5112351;28;20028;-41
2023/05/26 04:41:33;;;;;;;11.73;5.93;;;;;;;;;;5112123;28;20016;-40
2023/05/26 04:44:01;;;;;;;12.25;5.90;;;;;;;;;;5112076;28;20504;-42
2023/05/26 04:46:31;;;;;;;14.50;6.65;;;;;;;;;;5112077;28;20427;-40
2023/05/26 04:48:58;;;;;;;12.05;6.22;;;;;;;;;;5112121;28;20081;-41
2023/05/26 04:51:25;;;;;;;11.07;6.05;;;;;;;;;;5112128;28;20101;-40
2023/05/26 04:53:52;;;;;;;12.98;6.22;;;;;;;;;;5112067;28;20023;-40
2023/05/26 04:56:19;;;;;;;12.00;5.85;;;;;;;;;;5112053;28;20031;-41
2023/05/26 04:58:46;;;;;;;12.60;6.35;;;;;;;;;;5111928;28;20024;-41
2023/05/26 05:01:16;;;;;;;9.27;5.47;;;;;;;;;;5112063;28;20032;-40
2023/05/26 05:03:43;;;;;;;11.27;5.72;;;;;;;;;;5093442;28;20047;-41
2023/05/26 05:06:14;;;;;;;11.73;5.88;;;;;;;;;;5111848;28;20147;-40
2023/05/26 05:08:41;;;;;;;11.68;5.43;;;;;;;;;;5111920;28;20450;-40
2023/05/26 05:11:08;;;;;;;12.18;6.13;;;;;;;;;;5111936;28;20024;-40
2023/05/26 05:13:35;;;;;;;13.23;6.68;;;;;;;;;;5111846;28;20073;-41
2023/05/26 05:16:03;;;;;;;10.18;5.43;;;;;;;;;;5111937;28;20031;-40
2023/05/26 05:18:30;;;;;;;11.70;6.00;;;;;;;;;;5111784;28;20080;-41
2023/05/26 05:20:57;;;;;;;12.23;5.20;;;;;;;;;;5093523;28;20026;-41
2023/05/26 05:23:24;;;;;;;10.40;5.47;;;;;;;;;;5111718;28;20028;-40
2023/05/26 05:25:52;;;;;;;11.23;5.65;;;;;;;;;;5111661;28;20039;-40
2023/05/26 05:28:19;;;;;;;11.05;6.10;;;;;;;;;;5111504;28;20028;-40
2023/05/26 05:30:46;;;;;;;10.75;5.53;;;;;;;;;;5111728;28;20023;-44
2023/05/26 05:33:13;;;;;;;10.82;5.38;;;;;;;;;;5111662;28;20019;-41
2023/05/26 05:35:40;;;;;;;13.40;6.13;;;;;;;;;;5093387;28;20019;-40
2023/05/26 05:38:07;;;;;;;10.18;5.32;;;;;;;;;;5114752;28;20102;-40
2023/05/26 05:40:34;;;;;;;11.15;5.57;;;;;;;;;;5115696;28;20027;-41
2023/05/26 05:43:01;;;;;;;10.02;5.55;;;;;;;;;;5115668;28;20028;-40
2023/05/26 05:45:28;;;;;;;10.77;5.38;;;;;;;;;;5115523;28;20039;-40
2023/05/26 05:47:55;;;;;;;9.75;5.22;;;;;;;;;;5115494;28;20024;-41
2023/05/26 05:50:22;;;;;;;11.38;5.47;;;;;;;;;;5115497;28;20438;-41
2023/05/26 05:52:49;;;;;;;9.90;5.22;;;;;;;;;;5115363;28;20100;-40
2023/05/26 05:55:16;;;;;;;8.23;4.88;;;;;;;;;;5115263;28;20703;-41
2023/05/26 05:57:43;;;;;;;10.85;5.80;;;;;;;;;;5115371;28;20084;-41
2023/05/26 06:00:11;;;;;;;9.50;5.30;;;;;;;;;;5115311;28;20019;-40
2023/05/26 06:02:38;;;;;;;11.50;5.47;;;;;;;;;;5096977;28;20028;-41
2023/05/26 06:05:05;;;;;;;9.32;5.90;;;;;;;;;;5094568;28;20055;-40
2023/05/26 06:07:33;;;;;;;9.02;5.32;;;;;;;;;;5094651;28;20046;-40
2023/05/26 06:10:00;;;;;;;9.20;5.03;;;;;;;;;;5076524;28;20016;-41
2023/05/26 06:12:27;;;;;;;10.15;5.45;;;;;;;;;;5094714;28;20095;-40
2023/05/26 06:14:54;;;;;;;8.98;4.95;;;;;;;;;;5094559;28;20036;-40
2023/05/26 06:17:20;;;;;;;11.00;5.68;;;;;;;;;;5094415;28;20024;-41
2023/05/26 06:19:47;;;;;;;10.02;5.07;;;;;;;;;;5094539;28;20058;-40
2023/05/26 06:22:14;;;;;;;10.25;5.65;;;;;;;;;;5094283;28;20046;-40
2023/05/26 06:24:41;;;;;;;10.23;5.47;;;;;;;;;;5093977;28;20390;-41
2023/05/26 06:27:08;;;;;;;7.15;4.70;;;;;;;;;;5076084;28;20024;-40
2023/05/26 06:29:35;;;;;;;8.55;4.72;;;;;;;;;;5112713;28;20023;-40
2023/05/26 06:32:02;;;;;;;7.35;4.53;;;;;;;;;;5114688;28;20020;-40
2023/05/26 06:34:29;;;;;;;9.70;5.10;;;;;;;;;;5114483;28;20027;-40
2023/05/26 06:36:56;;;;;;;7.90;4.30;;;;;;;;;;5114508;28;20477;-40
2023/05/26 06:39:25;;;;;;;8.38;4.88;;;;;;;;;;5114482;28;20537;-40
2023/05/26 06:41:52;;;;;;;7.05;4.30;;;;;;;;;;5114488;28;20027;-40
2023/05/26 06:44:19;;;;;;;9.60;5.05;;;;;;;;;;5114295;28;20069;-40
2023/05/26 06:46:46;;;;;;;7.65;4.43;;;;;;;;;;5114410;28;20015;-41
2023/05/26 06:49:13;;;;;;;7.85;4.60;;;;;;;;;;5113870;28;20024;-41
2023/05/26 06:51:40;;;;;;;7.32;4.13;;;;;;;;;;5114107;28;20019;-40
2023/05/26 06:54:07;;;;;;;6.88;4.35;;;;;;;;;;5114052;28;20106;-40
2023/05/26 06:56:34;;;;;;;7.68;4.50;;;;;;;;;;5114265;28;20031;-41
2023/05/26 06:59:01;;;;;;;8.98;4.75;;;;;;;;;;5114172;28;20504;-41
2023/05/26 07:01:28;;;;;;;8.48;4.80;;;;;;;;;;5113888;28;20374;-40
2023/05/26 07:03:55;;;;;;;9.13;4.20;;;;;;;;;;5113812;28;20015;-41
2023/05/26 07:06:22;;;;;;;8.38;4.30;;;;;;;;;;5113930;28;20032;-40
2023/05/26 07:08:49;;;;;;;9.10;4.72;;;;;;;;;;5113988;28;20028;-40
2023/05/26 07:11:16;;;;;;;9.63;4.72;;;;;;;;;;5113913;28;20020;-41
2023/05/26 07:13:44;;;;;;;7.75;4.70;;;;;;;;;;5113853;28;20099;-40
2023/05/26 07:16:11;;;;;;;7.22;4.57;;;;;;;;;;5113752;28;20023;-40
2023/05/26 07:18:38;;;;;;;7.63;4.20;;;;;;;;;;5113780;28;20103;-41
2023/05/26 07:21:05;;;;;;;7.75;4.05;;;;;;;;;;5113597;28;20055;-40
2023/05/26 07:23:32;;;;;;;6.90;3.92;;;;;;;;;;5113520;28;20034;-40
2023/05/26 07:25:59;;;;;;;6.75;4.22;;;;;;;;;;5113551;28;20031;-41
2023/05/26 07:28:26;;;;;;;6.93;4.00;;;;;;;;;;5113457;28;20051;-41
2023/05/26 07:30:53;;;;;;;7.38;4.07;;;;;;;;;;5113515;28;20111;-40
2023/05/26 07:33:20;;;;;;;6.18;4.25;;;;;;;;;;5113334;28;20054;-41
2023/05/26 07:35:47;;;;;;;6.78;4.10;;;;;;;;;;5113448;28;20492;-40
2023/05/26 07:38:14;;;;;;;5.35;4.13;;;;;;;;;;5113433;28;20030;-40
2023/05/26 07:40:41;;;;;;;7.55;4.03;;;;;;;;;;5095030;28;20031;-41
2023/05/26 07:43:12;;;;;;;7.68;3.90;;;;;;;;;;5113181;28;20082;-41
2023/05/26 07:45:39;;;;;;;4.97;3.75;;;;;;;;;;5113047;28;20071;-40
2023/05/26 07:48:06;;;;;;;7.60;4.22;;;;;;;;;;5113208;28;20027;-40
2023/05/26 07:50:33;;;;;;;6.18;3.95;;;;;;;;;;5113325;28;20535;-40
2023/05/26 07:53:00;;;;;;;7.57;3.90;;;;;;;;;;5113015;28;20020;-40
2023/05/26 07:55:27;;;;;;;6.70;3.95;;;;;;;;;;5113140;28;20112;-41
2023/05/26 07:57:54;;;;;;;6.18;3.92;;;;;;;;;;5112992;28;20147;-41
2023/05/26 08:00:22;;;;;;;6.45;3.92;;;;;;;;;;5112306;28;20012;-41
2023/05/26 08:02:49;;;;;;;6.57;4.00;;;;;;;;;;5112702;28;20390;-40
2023/05/26 08:05:16;;;;;;;8.13;4.10;;;;;;;;;;5112621;28;20039;-40
2023/05/26 08:07:43;;;;;;;7.95;4.38;;;;;;;;;;5112784;28;20138;-41
2023/05/26 08:10:10;;;;;;;7.28;3.90;;;;;;;;;;5112852;28;20423;-40
2023/05/26 08:12:37;;;;;;;5.80;3.72;;;;;;;;;;5112623;28;20493;-40
2023/05/26 08:15:04;;;;;;;5.90;3.53;;;;;;;;;;5112772;28;20031;-41
2023/05/26 08:17:31;;;;;;;5.60;3.08;;;;;;;;;;5112656;28;20092;-40
2023/05/26 08:19:58;;;;;;;7.35;3.72;;;;;;;;;;5112456;28;20039;-41
2023/05/26 08:22:25;;;;;;;4.82;3.22;;;;;;;;;;5112525;28;20061;-40
2023/05/26 08:24:53;;;;;;;5.45;3.38;;;;;;;;;;5112471;28;20024;-40
2023/05/26 08:27:20;;;;;;;6.03;3.63;;;;;;;;;;5112359;28;20035;-40
2023/05/26 08:29:47;;;;;;;4.55;3.22;;;;;;;;;;5112481;28;20023;-41
2023/05/26 08:32:14;;;;;;;5.40;3.58;;;;;;;;;;5112453;28;20493;-40
2023/05/26 08:34:42;;;;;;;5.70;3.85;;;;;;;;;;5112348;28;20030;-40
2023/05/26 08:37:11;;;;;;;5.40;3.33;;;;;;;;;;5112180;28;20811;-41
2023/05/26 08:39:38;;;;;;;5.07;3.55;;;;;;;;;;5112103;28;20027;-41
2023/05/26 08:42:07;;;;;;;5.35;3.58;;;;;;;;;;5112254;28;20015;-41
2023/05/26 08:44:37;;;;;;;4.68;3.03;;;;;;;;;;5112020;28;20067;-40
2023/05/26 08:47:04;;;;;;;6.13;3.53;;;;;;;;;;5112075;28;20052;-41
2023/05/26 08:49:36;;;;;;;4.70;3.28;;;;;;;;;;5111975;28;20019;-40
2023/05/26 08:52:10;;;;;;;4.30;3.00;;;;;;;;;;5112190;28;20039;-40
2023/05/26 08:54:38;;;;;;;6.97;3.30;;;;;;;;;;5111934;28;20393;-40
2023/05/26 08:57:05;;;;;;;4.45;3.03;;;;;;;;;;5112157;28;20024;-42
2023/05/26 08:59:32;;;;;;;4.70;3.30;;;;;;;;;;5112028;28;20023;-40
2023/05/26 09:02:00;;;;;;;4.65;3.22;;;;;;;;;;5112094;28;20026;-40
2023/05/26 09:04:27;;;;;;;6.10;3.53;;;;;;;;;;5111582;28;20748;-40
2023/05/26 09:06:54;;;;;;;5.97;3.20;;;;;;;;;;5112032;28;20027;-40
2023/05/26 09:09:21;;;;;;;4.82;3.10;;;;;;;;;;5112008;28;20024;-41
2023/05/26 09:11:48;;;;;;;5.15;3.08;;;;;;;;;;5114537;28;20477;-41
2023/05/26 09:14:18;;;;;;;5.30;3.20;;;;;;;;;;5116078;28;20035;-40
2023/05/26 09:16:45;;;;;;;3.10;2.60;;;;;;;;;;5116142;28;20024;-41
2023/05/26 09:19:17;;;;;;;5.13;3.20;;;;;;;;;;5116136;28;20020;-40
2023/05/26 09:21:47;;;;;;;5.00;2.88;;;;;;;;;;5115856;28;20089;-41
2023/05/26 09:24:19;;;;;;;4.88;2.92;;;;;;;;;;5115812;28;20169;-40
2023/05/26 09:26:47;;;;;;;5.28;2.88;;;;;;;;;;5115977;28;20103;-41
2023/05/26 09:29:14;;;;;;;4.95;3.50;;;;;;;;;;5115980;28;20236;-43
2023/05/26 09:31:48;;;;;;;4.93;2.80;;;;;;;;;;5115956;28;20055;-40
2023/05/26 09:34:15;;;;;;;4.22;2.88;;;;;;;;;;5115719;28;20038;-40
2023/05/26 09:36:42;;;;;;;3.95;2.80;;;;;;;;;;5115779;28;20030;-41
2023/05/26 09:39:12;;;;;;;4.20;2.80;;;;;;;;;;5115734;28;20387;-41
2023/05/26 09:41:43;;;;;;;4.20;2.55;;;;;;;;;;5115742;28;20024;-40
2023/05/26 09:44:14;;;;;;;3.92;2.47;;;;;;;;;;5115313;28;20026;-41
2023/05/26 09:46:41;;;;;;;4.70;2.78;;;;;;;;;;5115716;28;20031;-41
2023/05/26 09:49:15;;;;;;;4.63;2.78;;;;;;;;;;5115501;28;20031;-41
2023/05/26 09:51:43;;;;;;;4.45;3.10;;;;;;;;;;5115478;28;20606;-40
2023/05/26 09:54:10;;;;;;;4.22;2.85;;;;;;;;;;5115311;28;20035;-41
2023/05/26 09:56:48;;;;;;;4.18;2.75;;;;;;;;;;5115390;28;20050;-40
2023/05/26 09:59:16;;;;;;;5.10;2.90;;;;;;;;;;5115402;28;20065;-40
2023/05/26 10:01:44;;;;;;;4.68;2.97;;;;;;;;;;5097016;28;20034;-41
2023/05/26 10:04:11;;;;;;;4.38;2.80;;;;;;;;;;5114933;28;20378;-41
2023/05/26 10:06:38;;;;;;;4.65;2.55;;;;;;;;;;5115214;28;20023;-40
2023/05/26 10:09:06;;;;;;;3.85;2.40;;;;;;;;;;5115108;28;20520;-40
2023/05/26 10:11:37;;;;;;;4.35;2.90;;;;;;;;;;5115100;28;20028;-40
2023/05/26 10:14:04;;;;;;;3.23;2.43;;;;;;;;;;5096702;28;20042;-40
2023/05/26 10:16:31;;;;;;;4.25;2.67;;;;;;;;;;5115042;28;20055;-40
2023/05/26 10:18:58;;;;;;;3.78;2.60;;;;;;;;;;5114909;28;20493;-42
2023/05/26 10:21:28;;;;;;;3.50;2.65;;;;;;;;;;5114893;28;20099;-40
2023/05/26 10:24:24;;;;;;;4.00;2.50;;;;;;;;;;5113922;28;20015;-40
2023/05/26 10:26:58;;;;;;;3.90;2.42;;;;;;;;;;5093645;28;20099;-40
2023/05/26 10:29:44;;;;;;;3.40;2.67;;;;;;;;;;5114770;28;20359;-40
2023/05/26 10:32:30;;;;;;;3.72;2.20;;;;;;;;;;5114431;28;20024;-40
2023/05/26 10:34:57;;;;;;;4.20;2.60;;;;;;;;;;5110937;28;20038;-41
2023/05/26 10:37:27;;;;;;;3.58;2.47;;;;;;;;;;5114440;28;20128;-40
2023/05/26 10:39:54;;;;;;;3.25;2.13;;;;;;;;;;5114559;28;20477;-41
2023/05/26 10:42:21;;;;;;;3.08;2.40;;;;;;;;;;5114410;28;20023;-40
2023/05/26 10:44:51;;;;;;;3.22;2.15;;;;;;;;;;5114359;28;20027;-40
2023/05/26 10:47:19;;;;;;;3.40;2.67;;;;;;;;;;5114252;28;20032;-40
2023/05/26 10:49:56;;;;;;;3.58;2.47;;;;;;;;;;5114419;28;20061;-41
2023/05/26 10:52:23;;;;;;;3.67;2.30;;;;;;;;;;5114251;28;20487;-42
2023/05/26 10:54:51;;;;;;;3.97;2.35;;;;;;;;;;5114128;28;20034;-40
2023/05/26 10:57:44;;;;;;;3.97;2.58;;;;;;;;;;5114237;28;20040;-40
2023/05/26 11:00:21;;;;;;;3.97;2.45;;;;;;;;;;5110043;28;20143;-40
2023/05/26 11:02:48;;;;;;;3.63;2.17;;;;;;;;;;5114089;28;20047;-40
2023/05/26 11:05:44;;;;;;;3.83;2.60;;;;;;;;;;5113814;28;20055;-40
2023/05/26 11:08:22;;;;;;;4.10;2.63;;;;;;;;;;5074926;28;20410;-40
2023/05/26 11:11:05;;;;;;;3.97;2.50;;;;;;;;;;5113997;28;20020;-40
2023/05/26 11:13:46;;;;;;;3.75;2.38;;;;;;;;;;5113872;28;20027;-40
2023/05/26 11:16:16;;;;;;;2.63;2.00;;;;;;;;;;5113993;28;20024;-40
2023/05/26 11:18:48;;;;;;;3.55;2.33;;;;;;;;;;5113852;28;20027;-40
2023/05/26 11:21:16;;;;;;;2.70;2.07;;;;;;;;;;5113623;28;20028;-40
2023/05/26 11:23:43;;;;;;;3.17;2.22;;;;;;;;;;5113709;28;20427;-40
2023/05/26 11:26:14;;;;;;;3.70;2.30;;;;;;;;;;5113638;28;20024;-40
2023/05/26 11:28:41;;;;;;;2.95;2.28;;;;;;;;;;5113597;28;20015;-41
2023/05/26 11:31:18;;;;;;;3.58;2.20;;;;;;;;;;5113577;28;20016;-40
2023/05/26 11:33:45;;;;;;;2.92;2.00;;;;;;;;;;5113027;28;20034;-41
2023/05/26 11:36:14;;;;;;;3.20;2.22;;;;;;;;;;5112948;28;20023;-41
2023/05/26 11:38:41;;;;;;;4.63;2.63;;;;;;;;;;5113288;28;20034;-40
2023/05/26 11:41:09;;;;;;;3.85;2.10;;;;;;;;;;5113249;28;20031;-40
2023/05/26 11:43:37;;;;;;;3.05;2.20;;;;;;;;;;5113062;28;20595;-41
2023/05/26 11:46:05;;;;;;;2.90;1.92;;;;;;;;;;5113171;28;20030;-40
2023/05/26 11:48:37;;;;;;;3.53;2.17;;;;;;;;;;5113258;28;20465;-41
2023/05/26 11:51:14;;;;;;;2.78;2.05;;;;;;;;;;5113387;28;20492;-40
2023/05/26 11:53:42;;;;;;;2.58;2.00;;;;;;;;;;5113093;28;20024;-41
2023/05/26 11:56:16;;;;;;;2.83;1.92;;;;;;;;;;5112818;28;20080;-41
2023/05/26 11:58:44;;;;;;;3.28;2.28;;;;;;;;;;5112922;28;20446;-41
2023/05/26 12:01:11;;;;;;;3.28;1.98;;;;;;;;;;5113042;28;20534;-41
2023/05/26 12:03:49;;;;;;;2.97;2.00;;;;;;;;;;5112539;28;20488;-43
2023/05/26 12:06:20;;;;;;;2.63;1.88;;;;;;;;;;5110296;28;20051;-41
2023/05/26 12:08:48;;;;;;;2.83;2.17;;;;;;;;;;5108809;28;20721;-40
2023/05/26 12:11:18;;;;;;;4.10;2.40;;;;;;;;;;5111470;28;20062;-40
2023/05/26 12:13:46;;;;;;;3.67;2.28;;;;;;;;;;5107998;28;20016;-40
2023/05/26 12:16:23;;;;;;;3.03;2.03;;;;;;;;;;5110717;28;20051;-41
2023/05/26 12:18:53;;;;;;;3.53;2.10;;;;;;;;;;5108890;28;20015;-41
2023/05/26 12:21:21;;;;;;;3.22;2.33;;;;;;;;;;5092330;28;20024;-44
2023/05/26 12:23:48;;;;;;;4.57;2.30;;;;;;;;;;5110538;28;20633;-41
2023/05/26 12:26:18;;;;;;;11.68;6.72;;;;;;;;;;5111010;28;20063;-41
2023/05/26 12:28:46;;;;;;;15.52;8.70;;;;;;;;;;5110818;28;20036;-41
2023/05/26 12:31:13;;;;;;;13.65;8.77;;;;;;;;;;5110984;28;20076;-41
2023/05/26 12:33:40;;;;;;;12.27;8.73;;;;;;;;;;5110705;28;20084;-41
2023/05/26 12:36:07;;;;;;;15.52;8.85;;;;;;;;;;5110102;28;20023;-41
2023/05/26 12:38:41;;;;;;;12.70;8.38;;;;;;;;;;5108110;28;20066;-41
2023/05/26 12:41:08;;;;;;;13.15;8.35;;;;;;;;;;5110314;28;20019;-40
2023/05/26 12:43:35;;;;;;;12.02;7.50;;;;;;;;;;5107862;28;20035;-41
2023/05/26 12:46:02;;;;;;;10.10;6.10;;;;;;;;;;5109944;28;20035;-41
2023/05/26 12:48:29;;;;;;;6.57;5.20;;;;;;;;;;5110305;28;20016;-41
2023/05/26 12:50:56;;;;;;;5.45;4.45;;;;;;;;;;5110262;28;20020;-41
2023/05/26 12:53:24;;;;;;;5.35;4.40;;;;;;;;;;5110054;28;20495;-44
2023/05/26 12:55:52;;;;;;;8.73;5.15;;;;;;;;;;5109831;28;20370;-41
2023/05/26 12:58:20;;;;;;;6.45;4.90;;;;;;;;;;5110495;28;20031;-41
2023/05/26 13:00:47;;;;;;;11.38;5.22;;;;;;;;;;5110380;28;20099;-41
2023/05/26 13:03:14;;;;;;;6.78;4.70;;;;;;;;;;5109947;28;20027;-41
2023/05/26 13:05:41;;;;;;;7.22;4.60;;;;;;;;;;5091430;28;20051;-41
2023/05/26 13:08:12;;;;;;;9.20;4.95;;;;;;;;;;5108344;28;20443;-41
2023/05/26 13:10:39;;;;;;;8.27;4.10;;;;;;;;;;5110192;28;20074;-43
2023/05/26 13:13:06;;;;;;;6.10;4.07;;;;;;;;;;5110457;28;20055;-42
2023/05/26 13:15:33;;;;;;;7.00;4.28;;;;;;;;;;5110442;28;20055;-42
2023/05/26 13:18:00;;;;;;;8.35;3.60;;;;;;;;;;5110397;28;20024;-42
2023/05/26 13:20:27;;;;;;;6.40;3.85;;;;;;;;;;5110419;28;20050;-42
2023/05/26 13:22:54;;;;;;;5.97;3.55;;;;;;;;;;5110122;28;20034;-41
2023/05/26 13:25:22;;;;;;;8.02;3.35;;;;;;;;;;5109855;28;20792;-42
2023/05/26 13:27:50;;;;;;;5.82;3.13;;;;;;;;;;5109843;28;20036;-42
2023/05/26 13:30:17;;;;;;;16.98;3.65;;;;;;;;;;5107719;28;20106;-41
2023/05/26 13:32:44;;;;;;;8.02;3.50;;;;;;;;;;5090022;28;20062;-42
2023/05/26 13:35:11;;;;;;;10.35;3.85;;;;;;;;;;5090040;28;20069;-43
2023/05/26 13:37:38;;;;;;;10.82;3.50;;;;;;;;;;5090081;28;20106;-42
2023/05/26 13:40:06;;;;;;;17.13;4.47;;;;;;;;;;5089439;28;20070;-42
2023/05/26 13:42:34;;;;;;;15.98;3.92;;;;;;;;;;5088779;28;20531;-42
2023/05/26 13:45:02;;;;;;;18.52;3.80;;;;;;;;;;5089469;28;20040;-44
2023/05/26 13:47:30;;;;;;;14.75;4.00;;;;;;;;;;5089430;28;20108;-42
2023/05/26 13:49:58;;;;;;;12.43;3.15;;;;;;;;;;5086706;28;20162;-41
2023/05/26 13:52:25;;;;;;;12.57;3.60;;;;;;;;;;5090666;28;20042;-40
2023/05/26 13:54:52;;;;;;;13.45;3.70;;;;;;;;;;5090247;28;20100;-41
2023/05/26 13:57:19;;;;;;;10.00;3.83;;;;;;;;;;5090310;28;20427;-41
2023/05/26 13:59:46;;;;;;;12.43;3.42;;;;;;;;;;5093633;28;20039;-42
2023/05/26 14:02:14;;;;;;;15.13;3.85;;;;;;;;;;5092686;28;20031;-41
2023/05/26 14:04:43;;;;;;;9.60;3.88;;;;;;;;;;5075786;28;20058;-41
2023/05/26 14:07:10;;;;;;;8.43;3.22;;;;;;;;;;5094760;28;20047;-40
2023/05/26 14:09:37;;;;;;;8.45;2.95;;;;;;;;;;5094839;28;20028;-41
2023/05/26 14:12:06;;;;;;;14.05;3.83;;;;;;;;;;5094668;28;20020;-41
2023/05/26 14:14:33;;;;;;;11.30;2.85;;;;;;;;;;5094568;28;20026;-42
2023/05/26 14:17:00;;;;;;;8.27;3.47;;;;;;;;;;5094741;28;20385;-41
2023/05/26 14:19:27;;;;;;;9.73;2.90;;;;;;;;;;5094623;28;20016;-41
2023/05/26 14:21:54;;;;;;;7.50;3.15;;;;;;;;;;5094563;28;20020;-40
2023/05/26 14:24:22;;;;;;;4.68;2.67;;;;;;;;;;5094561;28;20069;-40
2023/05/26 14:26:49;;;;;;;7.93;2.85;;;;;;;;;;5094529;28;20047;-40
2023/05/26 14:29:17;;;;;;;7.65;2.83;;;;;;;;;;5076184;28;20780;-40
2023/05/26 14:31:45;;;;;;;8.57;2.55;;;;;;;;;;5094214;28;20081;-40
2023/05/26 14:34:12;;;;;;;8.70;2.60;;;;;;;;;;5094240;28;20047;-40
2023/05/26 14:36:39;;;;;;;5.47;2.53;;;;;;;;;;5094320;28;20052;-40
2023/05/26 14:39:08;;;;;;;5.55;2.40;;;;;;;;;;5094324;28;20020;-43
2023/05/26 14:41:35;;;;;;;4.95;2.40;;;;;;;;;;5093980;28;20031;-40
2023/05/26 14:44:02;;;;;;;4.82;2.33;;;;;;;;;;5094183;28;20084;-42